Accueil
METAR-TAF:

METAR-TAF

Aéroports :

Aéroport Rouen Vallée de Seine

Rouen, France

latitude: 49-23N, longitude: 001-11E, altitude: 157 m

Observation

Le bulletin a été fait il y a 12 minutes, à 09:30 UTC
Vent 9 kt de est
Température 4°C
Humidité 93%
Pression 1024 hPa
Visibilité: 6000 m
Nuages fragmentés à une hauteur de 800 ft

METAR: LFOP 170930Z AUTO 08009KT 6000 BKN008 04/03 Q1024 BECMG NSC

Heure: 10:42 (09:42 UTC)

Prévision

Le bulletin a été fait il y a 1 heure et 17 minutes, à 08:25 UTC
Prévision valable du 17 à 08 UTC au 18 à 06 UTC
Vent 6 kt de est
Visibilité: 8000 m
Temporairement
du 17 à 08 UTC au 17 à 10 UTC
Visibilité: 4000 m
Ciel couvert à une hauteur de 500 ft
brume

TAF: LFOP 170825Z 1708/1806 09006KT 8000 NSC TEMPO 1708/1710 4000 BR OVC005

Observations et prévisions météorologiques de plus de 4000 aéroports (messages METAR et TAF).

Les stations disponibles sont représentées par des disques jaunes et rouges sur la carte.

Passer la souris dessus pour voir le nom de la station.

Cliquer dessus pour voir les observations et prévisions météorologiques.

Pour changer de carte: cliquez sur les boutons verts avec une croix noire pour zoomer, sur le bouton vert avec un tiret pour effectuer un zoom arrière, ou sur les flèches vertes pour les cartes adjacentes.


METAR-TAF: